createdAt,value
2017-09-19T00:00:50.287Z,8.90
2017-09-19T00:03:19.527Z,8.90
2017-09-19T00:05:47.980Z,8.90
2017-09-19T00:08:16.439Z,9.00
2017-09-19T00:10:45.691Z,9.00
2017-09-19T00:13:14.151Z,9.00
2017-09-19T00:15:42.618Z,9.00
2017-09-19T00:18:11.095Z,9.00
2017-09-19T00:20:40.328Z,9.00
2017-09-19T00:23:08.871Z,9.00
2017-09-19T00:25:38.096Z,9.10
2017-09-19T00:28:06.595Z,9.00
2017-09-19T00:30:35.054Z,9.10
2017-09-19T00:33:03.528Z,9.10
2017-09-19T00:35:32.756Z,9.10
2017-09-19T00:38:01.221Z,9.00
2017-09-19T00:40:29.703Z,9.10
2017-09-19T00:42:58.260Z,9.10
2017-09-19T00:45:27.159Z,9.10
2017-09-19T00:47:56.502Z,9.20
2017-09-19T00:50:24.967Z,9.10
2017-09-19T00:52:53.419Z,9.20
2017-09-19T00:55:22.059Z,9.10
2017-09-19T00:57:49.900Z,9.10
2017-09-19T01:00:17.673Z,9.10
2017-09-19T01:02:46.188Z,9.10
2017-09-19T01:05:14.663Z,9.00
2017-09-19T01:07:43.119Z,9.00
2017-09-19T01:10:11.579Z,9.10
2017-09-19T01:12:40.840Z,9.10
2017-09-19T01:15:09.324Z,9.00
2017-09-19T01:17:37.447Z,9.10
2017-09-19T01:20:05.964Z,9.10
2017-09-19T01:22:34.082Z,9.10
2017-09-19T01:25:03.338Z,9.10
2017-09-19T01:27:31.431Z,9.10
2017-09-19T01:29:59.883Z,9.20
2017-09-19T01:32:28.871Z,9.20
2017-09-19T01:34:57.342Z,9.20
2017-09-19T01:37:25.823Z,9.20
2017-09-19T01:39:53.608Z,9.20
2017-09-19T01:42:22.079Z,9.20
2017-09-19T01:44:50.547Z,9.20
2017-09-19T01:47:19.772Z,9.20
2017-09-19T01:49:48.227Z,9.10
2017-09-19T01:52:17.462Z,9.10
2017-09-19T01:54:45.947Z,9.00
2017-09-19T01:57:14.400Z,9.10
2017-09-19T01:59:42.881Z,9.10
2017-09-19T02:02:11.365Z,9.10
2017-09-19T02:04:39.852Z,9.00
2017-09-19T02:07:08.308Z,9.10
2017-09-19T02:09:37.607Z,9.20
2017-09-19T02:12:06.827Z,9.20
2017-09-19T02:14:35.291Z,9.10
2017-09-19T02:17:04.515Z,9.20
2017-09-19T02:19:32.992Z,9.20
2017-09-19T02:22:01.456Z,9.20
2017-09-19T02:24:30.795Z,9.20
2017-09-19T02:26:59.259Z,9.20
2017-09-19T02:29:27.711Z,9.20
2017-09-19T02:31:56.187Z,9.20
2017-09-19T02:34:26.163Z,9.10
2017-09-19T02:36:54.695Z,9.10
2017-09-19T02:39:24.646Z,9.20
2017-09-19T02:41:53.198Z,9.20
2017-09-19T02:44:21.651Z,9.30
2017-09-19T02:46:50.132Z,9.30
2017-09-19T02:49:18.616Z,9.30
2017-09-19T02:51:47.120Z,9.30
2017-09-19T02:54:15.567Z,9.30
2017-09-19T02:56:44.020Z,9.20
2017-09-19T02:59:12.503Z,9.20
2017-09-19T03:01:40.959Z,9.20
2017-09-19T03:04:10.255Z,9.20
2017-09-19T03:06:40.219Z,9.10
2017-09-19T03:09:08.687Z,9.10
2017-09-19T03:11:37.143Z,9.20
2017-09-19T03:14:06.386Z,9.10
2017-09-19T03:16:35.067Z,9.10
2017-09-19T03:19:03.538Z,9.10
2017-09-19T03:21:32.001Z,9.00
2017-09-19T03:24:01.228Z,9.10
2017-09-19T03:26:29.695Z,9.10
2017-09-19T03:28:58.151Z,9.10
2017-09-19T03:31:27.388Z,9.00
2017-09-19T03:33:55.844Z,9.00
2017-09-19T03:36:25.088Z,8.90
2017-09-19T03:38:53.664Z,8.90
2017-09-19T03:41:22.144Z,9.00
2017-09-19T03:43:50.735Z,9.00
2017-09-19T03:46:19.207Z,9.00
2017-09-19T03:48:47.659Z,9.00
2017-09-19T03:51:17.044Z,9.00
2017-09-19T03:53:45.495Z,9.00
2017-09-19T03:56:13.971Z,9.00
2017-09-19T03:58:42.427Z,9.00
2017-09-19T04:01:10.708Z,9.00
2017-09-19T04:03:39.177Z,9.00
2017-09-19T04:06:08.544Z,9.00
2017-09-19T04:08:37.000Z,9.00
2017-09-19T04:11:05.453Z,9.00
2017-09-19T04:13:33.907Z,9.00
2017-09-19T04:16:03.132Z,9.00
2017-09-19T04:18:32.372Z,9.00
2017-09-19T04:21:00.955Z,9.00
2017-09-19T04:23:29.432Z,9.00
2017-09-19T04:25:57.447Z,9.00
2017-09-19T04:28:26.570Z,9.00
2017-09-19T04:30:54.835Z,8.90
2017-09-19T04:33:23.878Z,9.00
2017-09-19T04:35:52.359Z,8.90
2017-09-19T04:38:20.831Z,9.00
2017-09-19T04:40:49.307Z,9.00
2017-09-19T04:43:17.765Z,9.00
2017-09-19T04:45:46.243Z,9.00
2017-09-19T04:48:15.468Z,9.00
2017-09-19T04:50:43.980Z,9.00
2017-09-19T04:53:12.460Z,9.00
2017-09-19T04:55:40.940Z,9.00
2017-09-19T04:58:09.403Z,9.00
2017-09-19T05:00:38.024Z,9.00
2017-09-19T05:03:06.488Z,9.00
2017-09-19T05:05:34.984Z,9.00
2017-09-19T05:08:03.443Z,8.90
2017-09-19T05:10:31.913Z,8.90
2017-09-19T05:13:00.380Z,8.90
2017-09-19T05:15:29.631Z,8.90
2017-09-19T05:17:58.125Z,8.90
2017-09-19T05:20:26.583Z,9.00
2017-09-19T05:22:55.134Z,9.00
2017-09-19T05:25:23.587Z,9.00
2017-09-19T05:27:53.559Z,8.90
2017-09-19T05:30:22.025Z,8.90
2017-09-19T05:32:50.413Z,8.90
2017-09-19T05:35:19.028Z,8.90
2017-09-19T05:37:47.587Z,8.90
2017-09-19T05:40:16.051Z,8.90
2017-09-19T05:42:44.546Z,8.90
2017-09-19T05:45:13.013Z,8.90
2017-09-19T05:47:41.467Z,9.00
2017-09-19T05:50:10.720Z,8.90
2017-09-19T05:52:38.990Z,8.90
2017-09-19T05:55:07.473Z,8.90
2017-09-19T05:57:35.949Z,9.00
2017-09-19T06:00:04.416Z,9.00
2017-09-19T06:02:32.905Z,9.00
2017-09-19T06:05:01.368Z,9.00
2017-09-19T06:07:30.616Z,9.10
2017-09-19T06:09:59.226Z,9.10
2017-09-19T06:12:27.709Z,9.10
2017-09-19T06:14:56.196Z,9.10
2017-09-19T06:17:24.681Z,9.20
2017-09-19T06:19:53.912Z,9.30
2017-09-19T06:22:23.151Z,9.20
2017-09-19T06:24:51.640Z,9.20
2017-09-19T06:27:20.158Z,9.30
2017-09-19T06:29:49.401Z,9.40
2017-09-19T06:32:17.963Z,9.30
2017-09-19T06:34:47.206Z,9.50
2017-09-19T06:37:15.700Z,9.50
2017-09-19T06:39:43.975Z,9.70
2017-09-19T06:42:12.431Z,9.70
2017-09-19T06:44:40.896Z,9.80
2017-09-19T06:47:09.395Z,9.90
2017-09-19T06:49:37.856Z,9.90
2017-09-19T06:52:06.164Z,10.00
2017-09-19T06:54:34.651Z,10.10
2017-09-19T06:57:03.236Z,10.00
2017-09-19T06:59:31.682Z,10.00
2017-09-19T07:02:00.163Z,10.00
2017-09-19T07:04:29.400Z,9.80
2017-09-19T07:06:57.857Z,9.70
2017-09-19T07:09:26.331Z,9.70
2017-09-19T07:11:54.799Z,9.80
2017-09-19T07:14:24.052Z,10.00
2017-09-19T07:16:52.499Z,9.90
2017-09-19T07:19:20.993Z,10.10
2017-09-19T07:21:49.449Z,10.40
2017-09-19T07:24:18.713Z,10.80
2017-09-19T07:26:47.195Z,10.80
2017-09-19T07:29:15.676Z,11.10
2017-09-19T07:31:44.158Z,11.20
2017-09-19T07:34:12.716Z,11.40
2017-09-19T07:36:41.179Z,11.50
2017-09-19T07:39:09.664Z,11.60
2017-09-19T07:41:38.115Z,11.60
2017-09-19T07:44:07.425Z,11.40
2017-09-19T07:46:36.639Z,11.10
2017-09-19T07:49:04.942Z,11.10
2017-09-19T07:51:33.399Z,10.90
2017-09-19T07:54:01.879Z,11.10
2017-09-19T07:56:30.344Z,11.20
2017-09-19T07:58:59.584Z,11.60
2017-09-19T08:01:28.067Z,11.50
2017-09-19T08:03:56.543Z,11.70
2017-09-19T08:06:25.001Z,11.40
2017-09-19T08:08:54.248Z,11.30
2017-09-19T08:11:22.740Z,11.30
2017-09-19T08:13:51.236Z,11.30
2017-09-19T08:16:21.224Z,10.90
2017-09-19T08:18:49.696Z,10.90
2017-09-19T08:21:18.169Z,11.00
2017-09-19T08:23:46.658Z,10.90
2017-09-19T08:26:15.131Z,11.00
2017-09-19T08:28:43.595Z,11.10
2017-09-19T08:31:12.955Z,11.00
2017-09-19T08:33:41.436Z,11.00
2017-09-19T08:36:09.907Z,11.00
2017-09-19T08:38:38.364Z,11.10
2017-09-19T08:41:06.853Z,11.00
2017-09-19T08:43:35.463Z,11.00
2017-09-19T08:46:03.943Z,11.20
2017-09-19T08:48:32.405Z,11.10
2017-09-19T08:51:00.866Z,10.90
2017-09-19T08:53:30.094Z,11.20
2017-09-19T08:55:58.566Z,11.10
2017-09-19T08:58:27.023Z,11.20
2017-09-19T09:00:56.259Z,11.20
2017-09-19T09:03:24.715Z,11.20
2017-09-19T09:05:53.239Z,11.20
2017-09-19T09:08:21.696Z,11.20
2017-09-19T09:10:50.148Z,11.20
2017-09-19T09:13:19.406Z,11.30
2017-09-19T09:15:47.875Z,11.20
2017-09-19T09:18:16.363Z,11.20
2017-09-19T09:20:45.732Z,11.10
2017-09-19T09:23:14.024Z,11.10
2017-09-19T09:25:42.291Z,11.00
2017-09-19T09:28:11.052Z,11.00
2017-09-19T09:30:40.308Z,11.40
2017-09-19T09:33:08.769Z,11.30
2017-09-19T09:35:37.268Z,11.60
2017-09-19T09:38:05.787Z,11.90
2017-09-19T09:40:35.861Z,12.00
2017-09-19T09:43:04.133Z,12.00
2017-09-19T09:45:32.632Z,12.10
2017-09-19T09:48:01.240Z,12.20
2017-09-19T09:50:29.813Z,12.10
2017-09-19T09:52:58.281Z,12.00
2017-09-19T09:55:26.780Z,12.20
2017-09-19T09:57:55.248Z,12.30
2017-09-19T10:00:23.869Z,12.10
2017-09-19T10:02:52.423Z,11.90
2017-09-19T10:05:20.879Z,12.00
2017-09-19T10:07:49.412Z,12.00
2017-09-19T10:10:17.920Z,11.80
2017-09-19T10:12:47.319Z,11.70
2017-09-19T10:15:16.560Z,11.60
2017-09-19T10:17:45.156Z,11.50
2017-09-19T10:20:13.619Z,11.40
2017-09-19T10:22:42.133Z,11.20
2017-09-19T10:25:10.840Z,10.90
2017-09-19T10:27:39.364Z,10.70
2017-09-19T10:30:08.582Z,10.90
2017-09-19T10:32:37.232Z,10.80
2017-09-19T10:35:06.468Z,11.50
2017-09-19T10:37:34.940Z,11.40
2017-09-19T10:40:03.407Z,11.70
2017-09-19T10:42:32.779Z,11.80
2017-09-19T10:45:01.255Z,11.80
2017-09-19T10:47:29.740Z,11.80
2017-09-19T10:49:58.208Z,11.90
2017-09-19T10:52:26.671Z,11.90
2017-09-19T10:54:55.159Z,11.80
2017-09-19T10:57:23.619Z,11.60
2017-09-19T10:59:52.091Z,11.40
2017-09-19T11:02:21.375Z,11.50
2017-09-19T11:04:50.609Z,11.70
2017-09-19T11:07:19.131Z,11.60
2017-09-19T11:09:47.583Z,12.00
2017-09-19T11:12:16.076Z,12.30
2017-09-19T11:14:44.531Z,12.70
2017-09-19T11:17:12.995Z,12.50
2017-09-19T11:19:42.329Z,12.20
2017-09-19T11:22:10.816Z,12.10
2017-09-19T11:24:39.290Z,12.20
2017-09-19T11:27:07.759Z,12.10
2017-09-19T11:29:36.223Z,12.00
2017-09-19T11:32:05.259Z,12.20
2017-09-19T11:34:33.852Z,12.10
2017-09-19T11:37:02.307Z,12.20
2017-09-19T11:39:30.782Z,12.10
2017-09-19T11:42:00.024Z,12.00
2017-09-19T11:44:28.530Z,11.90
2017-09-19T11:46:57.888Z,12.20
2017-09-19T11:49:26.398Z,12.10
2017-09-19T11:51:54.882Z,12.30
2017-09-19T11:54:23.352Z,12.70
2017-09-19T11:56:51.831Z,12.80
2017-09-19T11:59:20.289Z,13.10
2017-09-19T12:01:48.871Z,13.40
2017-09-19T12:04:17.355Z,13.30
2017-09-19T12:06:45.900Z,13.30
2017-09-19T12:09:14.367Z,13.10
2017-09-19T12:11:42.844Z,13.00
2017-09-19T12:14:11.295Z,12.90
2017-09-19T12:16:39.785Z,13.00
2017-09-19T12:19:08.239Z,13.30
2017-09-19T12:21:37.618Z,13.40
2017-09-19T12:24:07.140Z,13.00
2017-09-19T12:26:36.360Z,13.10
2017-09-19T12:29:04.841Z,13.10
2017-09-19T12:31:33.400Z,12.90
2017-09-19T12:34:01.883Z,12.80
2017-09-19T12:36:30.402Z,12.70
2017-09-19T12:38:58.859Z,12.70
2017-09-19T12:41:28.091Z,13.00
2017-09-19T12:43:56.620Z,13.00
2017-09-19T12:46:25.099Z,13.20
2017-09-19T12:48:54.323Z,13.80
2017-09-19T12:51:23.539Z,14.10
2017-09-19T12:53:52.047Z,14.00
2017-09-19T12:56:20.519Z,14.20
2017-09-19T12:58:48.997Z,14.80
2017-09-19T13:01:17.644Z,14.60
2017-09-19T13:03:46.124Z,14.10
2017-09-19T13:06:14.873Z,13.80
2017-09-19T13:08:43.318Z,13.70
2017-09-19T13:11:12.647Z,13.60
2017-09-19T13:13:41.121Z,13.50
2017-09-19T13:16:09.636Z,13.40
2017-09-19T13:18:38.111Z,13.40
2017-09-19T13:21:06.628Z,13.00
2017-09-19T13:23:35.120Z,13.00
2017-09-19T13:26:03.772Z,12.90
2017-09-19T13:28:32.241Z,12.80
2017-09-19T13:31:11.936Z,12.70
2017-09-19T13:33:53.644Z,12.80
2017-09-19T13:36:22.127Z,12.70
2017-09-19T13:38:50.412Z,12.70
2017-09-19T13:41:18.866Z,12.70
2017-09-19T13:43:48.175Z,12.60
2017-09-19T13:46:17.395Z,12.70
2017-09-19T13:48:45.699Z,12.70
2017-09-19T13:51:14.476Z,12.90
2017-09-19T13:53:43.170Z,13.00
2017-09-19T13:56:12.159Z,12.90
2017-09-19T13:58:40.671Z,12.90
2017-09-19T14:01:09.192Z,13.40
2017-09-19T14:03:38.416Z,13.20
2017-09-19T14:06:06.728Z,13.10
2017-09-19T14:08:35.198Z,13.20
2017-09-19T14:11:03.679Z,13.10
2017-09-19T14:13:32.168Z,13.20
2017-09-19T14:16:00.539Z,13.30
2017-09-19T14:18:29.119Z,13.20
2017-09-19T14:20:57.571Z,13.30
2017-09-19T14:23:26.811Z,13.40
2017-09-19T14:25:57.063Z,13.30
2017-09-19T14:28:25.647Z,13.40
2017-09-19T14:30:54.216Z,13.30
2017-09-19T14:33:22.698Z,13.20
2017-09-19T14:35:51.199Z,13.30
2017-09-19T14:38:19.687Z,13.20
2017-09-19T14:40:48.167Z,13.30
2017-09-19T14:43:16.623Z,13.30
2017-09-19T14:45:45.100Z,13.30
2017-09-19T14:48:13.591Z,13.30
2017-09-19T14:50:42.071Z,13.40
2017-09-19T14:53:10.548Z,13.50
2017-09-19T14:55:39.007Z,13.50
2017-09-19T14:58:07.569Z,13.60
2017-09-19T15:00:36.783Z,13.50
2017-09-19T15:03:05.269Z,13.40
2017-09-19T15:05:33.744Z,13.40
2017-09-19T15:08:03.003Z,13.30
2017-09-19T15:10:31.472Z,13.30
2017-09-19T15:13:00.025Z,13.50
2017-09-19T15:15:28.490Z,13.40
2017-09-19T15:17:56.947Z,13.40
2017-09-19T15:20:25.419Z,13.50
2017-09-19T15:22:53.901Z,13.60
2017-09-19T15:25:22.377Z,13.60
2017-09-19T15:27:50.858Z,13.60
2017-09-19T15:30:18.640Z,13.50
2017-09-19T15:32:47.895Z,13.30
2017-09-19T15:35:16.368Z,13.20
2017-09-19T15:37:44.496Z,13.20
2017-09-19T15:40:12.995Z,13.10
2017-09-19T15:42:42.219Z,13.50
2017-09-19T15:45:10.697Z,13.40
2017-09-19T15:47:39.168Z,13.60
2017-09-19T15:50:08.403Z,13.40
2017-09-19T15:52:36.869Z,13.30
2017-09-19T15:55:05.375Z,13.40
2017-09-19T15:57:33.851Z,13.50
2017-09-19T16:00:02.311Z,13.60
2017-09-19T16:02:30.796Z,13.50
2017-09-19T16:04:59.383Z,13.50
2017-09-19T16:07:27.867Z,13.40
2017-09-19T16:09:56.352Z,13.30
2017-09-19T16:12:24.829Z,13.10
2017-09-19T16:14:53.119Z,13.10
2017-09-19T16:17:21.579Z,13.00
2017-09-19T16:19:50.059Z,12.90
2017-09-19T16:22:18.527Z,12.70
2017-09-19T16:24:47.974Z,12.70
2017-09-19T16:27:16.644Z,12.60
2017-09-19T16:29:45.120Z,12.60
2017-09-19T16:32:13.587Z,12.50
2017-09-19T16:34:42.832Z,12.30
2017-09-19T16:37:11.320Z,12.30
2017-09-19T16:39:39.801Z,12.20
2017-09-19T16:42:08.260Z,12.20
2017-09-19T16:44:36.738Z,12.20
2017-09-19T16:47:05.231Z,12.10
2017-09-19T16:49:33.732Z,12.10
2017-09-19T16:52:02.016Z,12.00
2017-09-19T16:54:30.516Z,12.00
2017-09-19T16:56:58.986Z,11.90
2017-09-19T16:59:27.479Z,11.90
2017-09-19T17:01:55.932Z,11.80
2017-09-19T17:04:24.419Z,11.70
2017-09-19T17:06:52.895Z,11.70
2017-09-19T17:09:21.451Z,11.60
2017-09-19T17:11:49.958Z,11.60
2017-09-19T17:14:18.440Z,11.60
2017-09-19T17:16:46.926Z,11.60
2017-09-19T17:19:15.400Z,11.50
2017-09-19T17:21:43.900Z,11.40
2017-09-19T17:24:12.180Z,11.40
2017-09-19T17:26:40.472Z,11.30
2017-09-19T17:29:08.755Z,11.30
2017-09-19T17:31:38.015Z,11.10
2017-09-19T17:34:06.494Z,11.00
2017-09-19T17:36:34.973Z,10.90
2017-09-19T17:39:03.120Z,10.90
2017-09-19T17:41:32.480Z,10.80
2017-09-19T17:44:00.967Z,10.70
2017-09-19T17:46:29.491Z,10.70
2017-09-19T17:48:58.740Z,10.40
2017-09-19T17:51:27.230Z,10.40
2017-09-19T17:53:55.691Z,10.40
2017-09-19T17:56:24.184Z,10.40
2017-09-19T17:58:52.663Z,10.30
2017-09-19T18:01:21.150Z,10.30
2017-09-19T18:03:49.651Z,10.20
2017-09-19T18:06:18.116Z,10.20
2017-09-19T18:08:46.587Z,10.20
2017-09-19T18:11:14.852Z,10.20
2017-09-19T18:13:43.160Z,10.20
2017-09-19T18:16:11.652Z,10.20
2017-09-19T18:18:40.179Z,10.20
2017-09-19T18:21:09.506Z,10.20
2017-09-19T18:23:38.005Z,10.10
2017-09-19T18:26:06.491Z,10.20
2017-09-19T18:28:34.971Z,10.20
2017-09-19T18:31:03.463Z,10.20
2017-09-19T18:33:32.080Z,10.30
2017-09-19T18:36:00.559Z,10.30
2017-09-19T18:38:29.075Z,10.30
2017-09-19T18:40:57.672Z,10.30
2017-09-19T18:43:26.169Z,10.20
2017-09-19T18:45:54.761Z,10.20
2017-09-19T18:48:23.251Z,10.10
2017-09-19T18:50:51.815Z,10.10
2017-09-19T18:53:20.320Z,10.10
2017-09-19T18:55:48.812Z,10.00
2017-09-19T18:58:17.298Z,10.00
2017-09-19T19:00:45.775Z,10.00
2017-09-19T19:03:14.385Z,9.90
2017-09-19T19:05:43.104Z,9.90
2017-09-19T19:08:11.593Z,9.90
2017-09-19T19:10:40.092Z,9.90
2017-09-19T19:13:08.594Z,9.80
2017-09-19T19:15:37.074Z,9.80
2017-09-19T19:18:05.572Z,9.90
2017-09-19T19:20:35.581Z,9.90
2017-09-19T19:23:04.171Z,9.80
2017-09-19T19:25:32.644Z,9.90
2017-09-19T19:28:01.144Z,9.90
2017-09-19T19:30:29.642Z,9.90
2017-09-19T19:32:58.901Z,10.00
2017-09-19T19:35:27.380Z,9.90
2017-09-19T19:37:55.855Z,10.00
2017-09-19T19:40:24.311Z,10.00
2017-09-19T19:42:52.619Z,10.00
2017-09-19T19:45:20.922Z,10.00
2017-09-19T19:47:49.227Z,10.00
2017-09-19T19:50:18.447Z,10.00
2017-09-19T19:52:46.958Z,10.00
2017-09-19T19:55:15.497Z,10.10
2017-09-19T19:57:44.943Z,10.00
2017-09-19T20:00:13.428Z,10.00
2017-09-19T20:02:41.960Z,10.00
2017-09-19T20:05:11.023Z,10.10
2017-09-19T20:07:39.493Z,10.00
2017-09-19T20:10:08.856Z,10.20
2017-09-19T20:12:38.207Z,10.20
2017-09-19T20:15:06.684Z,10.10
2017-09-19T20:17:35.172Z,10.20
2017-09-19T20:20:03.628Z,10.20
2017-09-19T20:22:32.134Z,10.20
2017-09-19T20:25:00.612Z,10.20
2017-09-19T20:27:29.081Z,10.20
2017-09-19T20:29:57.603Z,10.10
2017-09-19T20:32:26.082Z,10.10
2017-09-19T20:34:54.592Z,10.20
2017-09-19T20:37:23.645Z,10.10
2017-09-19T20:39:52.170Z,10.00
2017-09-19T20:42:21.411Z,10.00
2017-09-19T20:44:49.996Z,10.00
2017-09-19T20:47:18.596Z,10.00
2017-09-19T20:49:47.065Z,10.00
2017-09-19T20:52:15.553Z,10.00
2017-09-19T20:54:44.019Z,10.00
2017-09-19T20:57:12.519Z,10.00
2017-09-19T20:59:40.819Z,10.00
2017-09-19T21:02:09.118Z,10.00
2017-09-19T21:04:43.212Z,9.90
2017-09-19T21:07:17.092Z,9.90
2017-09-19T21:09:51.023Z,9.90
2017-09-19T21:12:24.975Z,9.90
2017-09-19T21:14:59.658Z,9.90
2017-09-19T21:17:33.589Z,9.80
2017-09-19T21:20:02.877Z,9.80
2017-09-19T21:22:31.344Z,9.80
2017-09-19T21:24:59.838Z,9.80
2017-09-19T21:27:28.305Z,9.80
2017-09-19T21:29:56.805Z,9.80
2017-09-19T21:32:25.267Z,9.80
2017-09-19T21:34:53.763Z,9.80
2017-09-19T21:37:22.248Z,9.80
2017-09-19T21:39:50.708Z,9.80
2017-09-19T21:42:19.199Z,9.70
2017-09-19T21:44:47.648Z,9.80
2017-09-19T21:47:16.164Z,9.80
2017-09-19T21:49:44.734Z,9.80
2017-09-19T21:52:13.215Z,9.80
2017-09-19T21:54:41.661Z,9.80
2017-09-19T21:57:10.910Z,9.70
2017-09-19T21:59:39.383Z,9.70
2017-09-19T22:02:07.860Z,9.70
2017-09-19T22:04:36.324Z,9.80
2017-09-19T22:07:05.551Z,9.70
2017-09-19T22:09:34.033Z,9.70
2017-09-19T22:12:02.509Z,9.70
2017-09-19T22:14:30.989Z,9.70
2017-09-19T22:16:59.472Z,9.70
2017-09-19T22:19:27.992Z,9.70
2017-09-19T22:21:56.461Z,9.60
2017-09-19T22:24:24.941Z,9.60
2017-09-19T22:26:53.416Z,9.60
2017-09-19T22:29:21.896Z,9.60
2017-09-19T22:31:50.517Z,9.60
2017-09-19T22:34:18.996Z,9.60
2017-09-19T22:36:47.487Z,9.60
2017-09-19T22:39:16.717Z,9.50
2017-09-19T22:41:45.953Z,9.60
2017-09-19T22:44:14.435Z,9.50
2017-09-19T22:46:42.915Z,9.60
2017-09-19T22:49:11.395Z,9.60
2017-09-19T22:51:39.855Z,9.50
2017-09-19T22:54:08.333Z,9.60
2017-09-19T22:56:36.800Z,9.50
2017-09-19T22:59:06.045Z,9.60
2017-09-19T23:01:34.507Z,9.50
2017-09-19T23:04:02.980Z,9.60
2017-09-19T23:06:31.464Z,9.60
2017-09-19T23:08:59.915Z,9.60
2017-09-19T23:11:29.150Z,9.50
2017-09-19T23:13:57.607Z,9.40
2017-09-19T23:16:27.022Z,9.50
2017-09-19T23:18:56.356Z,9.50
2017-09-19T23:21:24.829Z,9.50
2017-09-19T23:23:53.290Z,9.50
2017-09-19T23:26:22.727Z,9.60
2017-09-19T23:28:51.312Z,9.50
2017-09-19T23:31:19.797Z,9.60
2017-09-19T23:33:48.480Z,9.50
2017-09-19T23:36:16.949Z,9.50
2017-09-19T23:38:45.443Z,9.50
2017-09-19T23:41:13.567Z,9.50
2017-09-19T23:43:42.051Z,9.50
2017-09-19T23:46:10.576Z,9.50
2017-09-19T23:48:39.092Z,9.50
2017-09-19T23:51:07.543Z,9.50
2017-09-19T23:53:36.017Z,9.50
2017-09-19T23:56:04.124Z,9.50
2017-09-19T23:58:32.589Z,9.50
